Time;durP1;ratioP1;P1;durP2;ratioP2;P2;SDS_P1;SDS_P2;PMS_P1;PMS_P2;Temp;Humidity;BMP_temperature;BMP_pressure;BME280_temperature;BME280_humidity;BME280_pressure;Samples;Min_cycle;Max_cycle;Signal;HPM_P1;HPM_P2
2022/01/26 00:00:54;;;;;;;462.57;433.23;;;4.10;99.90;;;;;;4360243;32;20190;-62
2022/01/26 00:06:13;;;;;;;476.07;446.30;;;4.10;99.90;;;;;;4360167;32;22154;-61
2022/01/26 00:08:40;;;;;;;483.20;453.07;;;4.10;99.90;;;;;;4377215;32;20149;-62
2022/01/26 00:11:08;;;;;;;504.93;473.93;;;4.10;99.90;;;;;;4368218;32;20157;-61
2022/01/26 00:13:36;;;;;;;512.73;481.00;;;4.20;99.90;;;;;;4360322;33;20196;-62
2022/01/26 00:16:08;;;;;;;500.83;469.20;;;4.20;99.90;;;;;;4360215;32;20201;-61
2022/01/26 00:18:37;;;;;;;495.47;464.53;;;4.20;99.90;;;;;;4361828;32;20185;-62
2022/01/26 00:21:09;;;;;;;477.33;448.00;;;4.10;99.90;;;;;;4360248;33;20469;-61
2022/01/26 00:24:06;;;;;;;482.97;453.40;;;4.00;99.90;;;;;;4372378;32;20169;-61
2022/01/26 00:26:38;;;;;;;460.73;431.43;;;4.00;99.90;;;;;;4359446;32;20457;-61
2022/01/26 00:29:11;;;;;;;485.80;455.43;;;3.90;99.90;;;;;;4360029;33;20215;-62
2022/01/26 00:40:16;;;;;;;452.00;423.90;;;4.00;99.90;;;;;;4328767;33;20535;-62
2022/01/26 00:42:46;;;;;;;457.60;429.23;;;4.00;99.90;;;;;;4328284;33;20166;-62
2022/01/26 00:45:21;;;;;;;482.00;451.80;;;4.00;99.90;;;;;;4316107;33;20214;-61
2022/01/26 00:47:47;;;;;;;480.63;451.63;;;4.00;99.90;;;;;;4317866;33;20609;-61
2022/01/26 00:50:16;;;;;;;480.83;451.37;;;4.10;99.90;;;;;;4330697;33;20236;-61
2022/01/26 00:52:45;;;;;;;479.50;448.97;;;4.10;99.90;;;;;;4329500;33;20252;-61
2022/01/26 00:55:17;;;;;;;504.40;472.83;;;4.10;99.90;;;;;;4329535;33;20497;-62
2022/01/26 00:57:44;;;;;;;487.73;457.47;;;4.10;99.90;;;;;;4329440;33;20229;-61
2022/01/26 01:00:16;;;;;;;487.23;456.97;;;4.20;99.90;;;;;;4317483;33;20214;-61
2022/01/26 01:02:45;;;;;;;506.70;475.57;;;4.20;99.90;;;;;;4332889;33;20193;-62
2022/01/26 01:05:17;;;;;;;501.17;469.43;;;4.20;99.90;;;;;;4330808;33;20170;-62
2022/01/26 01:07:46;;;;;;;480.20;450.93;;;4.20;99.90;;;;;;4315631;33;20166;-61
2022/01/26 01:10:18;;;;;;;483.90;454.33;;;4.20;99.90;;;;;;4329348;33;20160;-61
2022/01/26 01:12:45;;;;;;;499.57;468.50;;;4.10;99.90;;;;;;4329506;33;20188;-61
2022/01/26 01:15:13;;;;;;;502.13;471.50;;;4.10;99.90;;;;;;4371023;32;20557;-61
2022/01/26 01:17:46;;;;;;;470.20;440.70;;;4.20;99.90;;;;;;4377346;32;20167;-62
2022/01/26 01:20:28;;;;;;;480.23;451.23;;;4.10;99.90;;;;;;4373672;32;20162;-61
2022/01/26 01:23:14;;;;;;;484.57;454.93;;;4.00;99.90;;;;;;4375517;32;20229;-61
2022/01/26 01:28:44;;;;;;;487.20;458.00;;;4.10;99.90;;;;;;4375226;32;20261;-61
2022/01/26 01:31:15;;;;;;;481.03;451.23;;;4.10;99.90;;;;;;4362135;32;20145;-61
2022/01/26 01:33:47;;;;;;;489.37;459.27;;;4.10;99.90;;;;;;4365637;32;20144;-61
2022/01/26 01:36:16;;;;;;;514.80;483.30;;;4.10;99.90;;;;;;4369106;32;20152;-62
2022/01/26 01:38:44;;;;;;;523.50;491.90;;;4.10;99.90;;;;;;4373913;32;20156;-61
2022/01/26 01:41:11;;;;;;;493.83;463.60;;;4.20;99.90;;;;;;4376946;32;20557;-62
2022/01/26 01:43:38;;;;;;;496.57;466.70;;;4.20;99.90;;;;;;4375950;32;20556;-61
2022/01/26 01:46:06;;;;;;;520.80;489.37;;;4.30;99.90;;;;;;4376973;32;20160;-61
2022/01/26 01:48:34;;;;;;;507.43;476.03;;;4.20;99.90;;;;;;4376659;32;20178;-61
2022/01/26 01:51:08;;;;;;;489.27;460.13;;;4.20;99.90;;;;;;4374834;32;20153;-61
2022/01/26 01:53:40;;;;;;;498.53;468.23;;;4.20;99.90;;;;;;4376097;32;20166;-61
2022/01/26 01:56:12;;;;;;;498.90;469.37;;;4.20;99.90;;;;;;4361401;32;20575;-61
2022/01/26 01:58:40;;;;;;;486.43;457.03;;;4.20;99.90;;;;;;4363528;32;20149;-62
2022/01/26 02:01:08;;;;;;;507.73;476.53;;;4.20;99.90;;;;;;4373377;32;20187;-62
2022/01/26 02:03:34;;;;;;;474.07;445.03;;;4.30;99.90;;;;;;4385353;32;20228;-61
2022/01/26 02:06:04;;;;;;;498.33;467.93;;;4.30;99.90;;;;;;4367958;32;20222;-61
2022/01/26 02:08:33;;;;;;;494.70;463.57;;;4.30;99.90;;;;;;4373416;32;20178;-62
2022/01/26 02:11:00;;;;;;;504.30;473.60;;;4.30;99.90;;;;;;4378167;32;20171;-62
2022/01/26 02:13:31;;;;;;;481.30;451.97;;;4.30;99.90;;;;;;4376749;32;20180;-62
2022/01/26 02:16:06;;;;;;;481.03;450.67;;;4.30;99.90;;;;;;4362502;32;20509;-61
2022/01/26 02:18:51;;;;;;;468.13;438.73;;;4.30;99.90;;;;;;4361574;32;20476;-61
2022/01/26 02:21:31;;;;;;;461.87;433.07;;;4.20;99.90;;;;;;4363390;32;20207;-61
2022/01/26 02:54:41;;;;;;;456.53;427.23;;;4.10;99.90;;;;;;4315464;33;20169;-61
2022/01/26 02:57:29;;;;;;;474.93;445.73;;;4.20;99.90;;;;;;4315537;33;20156;-61
2022/01/26 03:02:58;;;;;;;467.87;438.00;;;4.10;99.90;;;;;;4367278;32;2163831;-61
2022/01/26 03:05:33;;;;;;;486.63;455.43;;;4.10;99.90;;;;;;4418535;32;20139;-61
2022/01/26 03:08:03;;;;;;;471.20;441.53;;;4.20;99.90;;;;;;4412551;32;20289;-62
2022/01/26 03:10:39;;;;;;;473.07;442.90;;;4.20;99.90;;;;;;4403667;32;20188;-61
2022/01/26 03:13:14;;;;;;;472.20;441.73;;;4.10;99.90;;;;;;4403257;32;20239;-61
2022/01/26 03:15:45;;;;;;;481.77;450.80;;;4.20;99.90;;;;;;4403383;32;20162;-60
2022/01/26 03:21:00;;;;;;;474.27;444.50;;;4.10;99.90;;;;;;4416745;32;20203;-62
2022/01/26 03:32:40;;;;;;;491.17;459.97;;;4.00;99.90;;;;;;4357959;32;20157;-62
2022/01/26 03:35:00;;;;;;;465.30;435.90;;;4.00;99.90;;;;;;4355694;32;20597;-62
2022/01/26 03:37:32;;;;;;;480.77;450.43;;;4.10;99.90;;;;;;4355702;33;20162;-62
2022/01/26 03:39:59;;;;;;;542.10;507.90;;;4.00;99.90;;;;;;4362205;32;20164;-62
2022/01/26 03:42:26;;;;;;;519.47;486.20;;;4.00;99.90;;;;;;4366936;32;20267;-62
2022/01/26 03:44:52;;;;;;;503.40;471.53;;;4.00;99.90;;;;;;4370738;32;20328;-61
2022/01/26 03:47:19;;;;;;;493.90;462.93;;;4.10;99.90;;;;;;4370777;32;20577;-61
2022/01/26 03:49:46;;;;;;;512.13;479.40;;;4.10;99.90;;;;;;4370062;32;20212;-62
2022/01/26 03:52:14;;;;;;;507.90;475.73;;;4.10;99.90;;;;;;4368223;32;20184;-61
2022/01/26 03:54:41;;;;;;;515.50;482.47;;;4.10;99.90;;;;;;4370393;32;20211;-60
2022/01/26 03:57:08;;;;;;;503.80;472.23;;;4.10;99.90;;;;;;4370412;32;20205;-60
2022/01/26 03:59:35;;;;;;;507.10;474.87;;;4.20;99.90;;;;;;4370498;32;20184;-60
2022/01/26 04:02:01;;;;;;;510.17;476.80;;;4.10;99.90;;;;;;4370675;32;20638;-60
2022/01/26 04:04:32;;;;;;;504.27;472.70;;;4.20;99.90;;;;;;4369980;32;20191;-60
2022/01/26 04:07:01;;;;;;;512.67;479.43;;;4.20;99.90;;;;;;4370325;32;20152;-60
2022/01/26 04:09:29;;;;;;;512.27;479.63;;;4.10;99.90;;;;;;4397117;32;20205;-59
2022/01/26 04:11:56;;;;;;;526.37;493.30;;;4.10;99.90;;;;;;4403123;32;20211;-60
2022/01/26 04:14:27;;;;;;;510.40;477.67;;;4.10;99.90;;;;;;4393318;32;20160;-60
2022/01/26 04:16:54;;;;;;;496.87;464.73;;;4.10;99.90;;;;;;4392629;32;20561;-59
2022/01/26 04:19:31;;;;;;;518.57;485.63;;;4.10;99.90;;;;;;4392448;32;20163;-60
2022/01/26 04:22:09;;;;;;;515.67;482.50;;;4.10;99.90;;;;;;4392985;32;20173;-59
2022/01/26 04:24:44;;;;;;;501.83;469.60;;;4.10;99.90;;;;;;4404140;32;20522;-60
2022/01/26 04:27:19;;;;;;;493.53;461.90;;;4.10;99.90;;;;;;4408028;32;20208;-60
2022/01/26 04:29:48;;;;;;;491.83;460.53;;;4.20;99.90;;;;;;4407728;32;20200;-60
2022/01/26 04:32:16;;;;;;;489.60;458.07;;;4.10;99.90;;;;;;4406793;32;20197;-60
2022/01/26 04:34:43;;;;;;;503.70;471.10;;;4.10;99.90;;;;;;4394012;32;20495;-59
2022/01/26 04:37:18;;;;;;;515.80;482.20;;;4.10;99.90;;;;;;4392180;32;20166;-60
2022/01/26 04:39:51;;;;;;;496.13;464.03;;;4.10;99.90;;;;;;4392082;32;20148;-60
2022/01/26 04:42:25;;;;;;;507.07;473.83;;;4.20;99.90;;;;;;4392113;32;20175;-60
2022/01/26 04:44:57;;;;;;;484.73;453.10;;;4.10;99.90;;;;;;4400381;32;20174;-60
2022/01/26 04:47:27;;;;;;;476.73;446.43;;;4.10;99.90;;;;;;4407687;32;20144;-60
2022/01/26 04:49:53;;;;;;;505.30;473.07;;;4.10;99.90;;;;;;4406947;32;20561;-60
2022/01/26 04:52:20;;;;;;;506.03;473.17;;;4.10;99.90;;;;;;4405984;32;20572;-60
2022/01/26 04:54:49;;;;;;;503.97;471.03;;;4.10;99.90;;;;;;4404356;32;20195;-60
2022/01/26 04:57:16;;;;;;;504.73;471.37;;;4.10;99.90;;;;;;4395937;32;20526;-60
2022/01/26 04:59:43;;;;;;;488.93;456.40;;;4.10;99.90;;;;;;4402506;32;20151;-60
2022/01/26 05:02:10;;;;;;;503.40;469.40;;;4.10;99.90;;;;;;4406550;32;20186;-60
2022/01/26 05:04:40;;;;;;;511.67;477.93;;;4.00;99.90;;;;;;4401570;32;20151;-60
2022/01/26 05:07:07;;;;;;;522.67;488.83;;;4.00;99.90;;;;;;4407217;32;20203;-60
2022/01/26 05:09:34;;;;;;;516.60;482.57;;;4.00;99.90;;;;;;4397804;32;20216;-60
2022/01/26 05:12:02;;;;;;;524.73;490.53;;;4.00;99.90;;;;;;4399466;32;20196;-60
2022/01/26 05:14:29;;;;;;;532.73;497.73;;;4.00;99.90;;;;;;4394387;32;20521;-60
2022/01/26 05:16:56;;;;;;;520.73;485.97;;;3.90;99.90;;;;;;4403887;32;20234;-60
2022/01/26 05:19:23;;;;;;;502.70;469.37;;;4.00;99.90;;;;;;4406653;32;20161;-62
2022/01/26 05:21:50;;;;;;;495.53;462.80;;;4.00;99.90;;;;;;4400575;32;20576;-61
2022/01/26 05:24:17;;;;;;;491.87;458.80;;;4.00;99.90;;;;;;4392023;32;20155;-61
2022/01/26 05:26:44;;;;;;;497.83;463.73;;;4.00;99.90;;;;;;4391325;32;20166;-62
2022/01/26 05:29:12;;;;;;;494.83;462.77;;;3.90;99.90;;;;;;4392772;32;20211;-60
2022/01/26 05:31:39;;;;;;;505.57;472.37;;;3.90;99.90;;;;;;4391530;32;20195;-62
2022/01/26 05:34:06;;;;;;;505.53;471.63;;;4.00;99.90;;;;;;4404665;32;20679;-61
2022/01/26 05:36:34;;;;;;;496.40;463.77;;;4.00;99.90;;;;;;4393044;32;20195;-62
2022/01/26 05:39:01;;;;;;;502.33;468.80;;;4.00;99.90;;;;;;4391226;32;20534;-61
2022/01/26 05:41:28;;;;;;;498.60;464.20;;;4.00;99.90;;;;;;4391127;32;20149;-62
2022/01/26 05:43:58;;;;;;;496.37;462.37;;;4.00;99.90;;;;;;4401989;32;20518;-59
2022/01/26 05:46:32;;;;;;;462.60;430.70;;;4.00;99.90;;;;;;4403823;32;20198;-61
2022/01/26 05:48:59;;;;;;;473.00;441.53;;;3.90;99.90;;;;;;4407750;32;20147;-61
2022/01/26 05:51:30;;;;;;;482.50;450.30;;;4.00;99.90;;;;;;4406662;32;20182;-61
2022/01/26 05:53:57;;;;;;;522.10;486.63;;;3.90;99.90;;;;;;4404343;32;20159;-61
2022/01/26 05:56:24;;;;;;;513.97;479.30;;;3.90;99.90;;;;;;4394909;32;20208;-61
2022/01/26 05:58:51;;;;;;;477.93;444.27;;;3.90;99.90;;;;;;4391081;32;20168;-61
2022/01/26 06:01:19;;;;;;;479.97;445.13;;;3.90;99.90;;;;;;4403059;32;20594;-61
2022/01/26 06:03:47;;;;;;;496.30;461.70;;;3.90;99.90;;;;;;4417838;32;20201;-60
2022/01/26 06:06:15;;;;;;;510.67;476.53;;;3.90;99.90;;;;;;4392552;32;20229;-61
2022/01/26 06:08:42;;;;;;;510.43;475.03;;;3.90;99.90;;;;;;4404257;32;20180;-60
2022/01/26 06:11:09;;;;;;;488.33;455.03;;;4.00;99.90;;;;;;4404320;32;20540;-61
2022/01/26 06:13:36;;;;;;;498.70;463.63;;;4.00;99.90;;;;;;4402668;32;20210;-61
2022/01/26 06:16:03;;;;;;;493.27;459.23;;;3.90;99.90;;;;;;4402718;32;20204;-61
2022/01/26 06:18:30;;;;;;;495.23;460.47;;;4.00;99.90;;;;;;4404323;32;20213;-61
2022/01/26 06:20:58;;;;;;;475.70;442.63;;;3.90;99.90;;;;;;4410545;32;20491;-61
2022/01/26 06:23:26;;;;;;;510.50;474.97;;;3.90;99.90;;;;;;4414672;32;20214;-61
2022/01/26 06:25:54;;;;;;;486.30;452.33;;;3.90;99.90;;;;;;4405115;32;20161;-61
2022/01/26 06:28:22;;;;;;;477.10;443.90;;;3.90;99.90;;;;;;4409358;32;20584;-61
2022/01/26 06:30:52;;;;;;;506.80;472.27;;;3.80;99.90;;;;;;4409630;32;20164;-63
2022/01/26 06:33:20;;;;;;;480.77;446.90;;;3.90;99.90;;;;;;4412458;32;20213;-61
2022/01/26 06:35:47;;;;;;;487.23;453.23;;;3.90;99.90;;;;;;4415345;32;20514;-63
2022/01/26 06:38:16;;;;;;;495.03;462.40;;;3.80;99.90;;;;;;4416580;32;20187;-63
2022/01/26 06:40:43;;;;;;;499.43;464.00;;;3.80;99.90;;;;;;4413519;32;20159;-61
2022/01/26 06:43:13;;;;;;;508.87;474.47;;;3.80;99.90;;;;;;4411462;32;20512;-61
2022/01/26 06:45:48;;;;;;;496.03;462.03;;;3.80;99.90;;;;;;4411043;32;20169;-62
2022/01/26 06:50:56;;;;;;;509.40;474.20;;;3.70;99.90;;;;;;4403982;32;20196;-63
2022/01/26 06:53:25;;;;;;;536.27;498.83;;;3.80;99.90;;;;;;4411232;32;20176;-62
2022/01/26 06:55:52;;;;;;;523.93;488.03;;;3.80;99.90;;;;;;4413911;32;20206;-62
2022/01/26 06:58:19;;;;;;;525.17;488.80;;;3.80;99.90;;;;;;4408988;32;20594;-61
2022/01/26 07:00:46;;;;;;;519.37;483.97;;;3.80;99.90;;;;;;4413163;32;20179;-61
2022/01/26 07:03:14;;;;;;;517.43;481.70;;;3.80;99.90;;;;;;4417119;32;20498;-61
2022/01/26 07:05:42;;;;;;;541.17;503.90;;;3.80;99.90;;;;;;4413065;32;20144;-61
2022/01/26 07:08:09;;;;;;;532.50;496.00;;;3.80;99.90;;;;;;4414895;32;20163;-60
2022/01/26 07:10:37;;;;;;;534.33;498.33;;;3.90;99.90;;;;;;4410999;32;20246;-62
2022/01/26 07:13:04;;;;;;;538.63;501.90;;;3.90;99.90;;;;;;4417212;32;20193;-61
2022/01/26 07:21:26;;;;;;;498.33;463.50;;;3.90;99.90;;;;;;4376422;32;20169;-62
2022/01/26 07:23:54;;;;;;;506.50;471.50;;;3.90;99.90;;;;;;4379088;32;20162;-60
2022/01/26 07:26:25;;;;;;;532.33;495.43;;;3.90;99.90;;;;;;4366122;32;20184;-61
2022/01/26 07:28:51;;;;;;;539.87;502.60;;;3.90;99.90;;;;;;4367005;32;20171;-60
2022/01/26 07:31:18;;;;;;;518.53;483.47;;;3.90;99.90;;;;;;4373067;32;20204;-61
2022/01/26 07:33:45;;;;;;;533.63;496.70;;;3.90;99.90;;;;;;4373364;32;20507;-62
2022/01/26 07:36:13;;;;;;;558.93;520.97;;;3.90;99.90;;;;;;4373969;32;20653;-61
2022/01/26 07:38:40;;;;;;;512.40;477.27;;;4.00;99.90;;;;;;4372946;32;20220;-61
2022/01/26 07:41:06;;;;;;;511.13;476.70;;;4.10;99.90;;;;;;4372540;32;20184;-62
2022/01/26 07:43:35;;;;;;;508.07;473.83;;;4.00;99.90;;;;;;4372931;32;20220;-61
2022/01/26 07:46:01;;;;;;;511.20;476.97;;;4.10;99.90;;;;;;4373070;32;20241;-61
2022/01/26 07:48:28;;;;;;;523.07;489.13;;;4.10;99.90;;;;;;4374047;32;20167;-60
2022/01/26 07:50:56;;;;;;;508.37;475.90;;;4.10;99.90;;;;;;4375925;32;20160;-62
2022/01/26 07:53:23;;;;;;;500.23;468.07;;;4.20;99.90;;;;;;4375983;32;20195;-62
2022/01/26 07:55:50;;;;;;;484.67;454.90;;;4.20;99.90;;;;;;4386807;32;20172;-60
2022/01/26 07:58:18;;;;;;;483.50;452.77;;;4.20;99.90;;;;;;4397981;32;20270;-62
2022/01/26 08:00:47;;;;;;;468.93;439.20;;;4.20;99.90;;;;;;4407821;32;20155;-62
2022/01/26 08:03:14;;;;;;;475.10;446.07;;;4.30;99.90;;;;;;4407897;32;20152;-60
2022/01/26 08:05:41;;;;;;;468.20;439.87;;;4.30;99.90;;;;;;4407993;32;20147;-61
2022/01/26 08:08:08;;;;;;;458.53;430.50;;;4.40;99.90;;;;;;4405601;32;20639;-61
2022/01/26 08:10:35;;;;;;;448.83;420.77;;;4.40;99.90;;;;;;4407571;32;20467;-61
2022/01/26 08:13:02;;;;;;;446.87;418.90;;;4.40;99.90;;;;;;4408284;32;20167;-61
2022/01/26 08:15:29;;;;;;;447.43;420.10;;;4.30;99.90;;;;;;4408362;32;20148;-61
2022/01/26 08:17:58;;;;;;;473.47;444.97;;;4.30;99.90;;;;;;4407411;32;20147;-61
2022/01/26 08:20:26;;;;;;;462.37;433.90;;;4.30;99.90;;;;;;4405592;32;20156;-62
2022/01/26 08:22:56;;;;;;;433.97;407.17;;;4.30;99.90;;;;;;4407619;32;20569;-61
2022/01/26 08:25:22;;;;;;;443.73;416.43;;;4.40;99.90;;;;;;4408608;32;20214;-62
2022/01/26 08:27:56;;;;;;;436.93;410.93;;;4.40;99.90;;;;;;4407664;32;20544;-61
2022/01/26 08:30:23;;;;;;;410.47;384.50;;;4.40;99.90;;;;;;4395309;32;20207;-61
2022/01/26 08:32:50;;;;;;;409.10;383.93;;;4.40;99.90;;;;;;4392660;32;20144;-61
2022/01/26 08:35:18;;;;;;;417.30;392.60;;;4.50;99.90;;;;;;4392844;32;20480;-62
2022/01/26 08:37:45;;;;;;;404.53;379.83;;;4.40;99.90;;;;;;4392138;32;20148;-61
2022/01/26 08:40:12;;;;;;;404.77;380.17;;;4.40;99.90;;;;;;4400558;32;20187;-61
2022/01/26 08:42:41;;;;;;;406.43;381.33;;;4.40;99.90;;;;;;4407074;32;20445;-62
2022/01/26 08:45:09;;;;;;;422.67;397.47;;;4.30;99.90;;;;;;4407253;32;20177;-61
2022/01/26 08:47:36;;;;;;;408.87;385.10;;;4.30;99.90;;;;;;4407073;32;20147;-63
2022/01/26 08:50:04;;;;;;;399.17;376.00;;;4.40;99.90;;;;;;4404536;32;20223;-61
2022/01/26 08:52:33;;;;;;;403.17;379.40;;;4.30;99.90;;;;;;4407069;32;20166;-62
2022/01/26 08:54:59;;;;;;;396.50;373.10;;;4.40;99.90;;;;;;4407145;32;20182;-63
2022/01/26 08:57:26;;;;;;;396.20;372.83;;;4.40;99.90;;;;;;4406793;32;20167;-62
2022/01/26 08:59:53;;;;;;;395.50;371.83;;;4.40;99.90;;;;;;4402577;32;20493;-61
2022/01/26 09:02:20;;;;;;;393.77;370.90;;;4.50;99.90;;;;;;4391807;32;20181;-61
2022/01/26 09:04:50;;;;;;;389.53;367.30;;;4.50;99.90;;;;;;4392967;32;20148;-62
2022/01/26 09:07:19;;;;;;;378.50;356.73;;;4.50;99.90;;;;;;4391867;32;20191;-61
2022/01/26 09:09:48;;;;;;;384.57;362.47;;;4.50;99.90;;;;;;4392546;32;20225;-61
2022/01/26 09:12:16;;;;;;;391.73;369.13;;;4.50;99.90;;;;;;4395363;32;20166;-63
2022/01/26 09:14:44;;;;;;;372.67;350.23;;;4.50;99.90;;;;;;4396918;32;20183;-62
2022/01/26 09:17:11;;;;;;;369.43;348.63;;;4.60;99.90;;;;;;4399130;32;20641;-60
2022/01/26 09:19:41;;;;;;;383.13;360.73;;;4.60;99.90;;;;;;4392276;32;20237;-61
2022/01/26 09:22:11;;;;;;;375.67;353.97;;;4.70;99.90;;;;;;4399189;32;20203;-60
2022/01/26 09:24:42;;;;;;;381.07;358.20;;;4.70;99.90;;;;;;4394609;32;20192;-60
2022/01/26 09:27:14;;;;;;;377.83;355.63;;;4.70;99.90;;;;;;4391302;32;20148;-62
2022/01/26 09:29:42;;;;;;;377.93;355.93;;;4.70;99.90;;;;;;4391450;32;20152;-59
2022/01/26 09:32:09;;;;;;;385.73;363.40;;;4.70;99.90;;;;;;4394615;32;20219;-62
2022/01/26 09:34:37;;;;;;;381.67;359.60;;;4.80;99.90;;;;;;4396512;32;20586;-61
2022/01/26 09:37:05;;;;;;;383.03;361.20;;;4.70;99.90;;;;;;4397875;32;20156;-60
2022/01/26 09:39:32;;;;;;;398.67;376.20;;;4.80;99.90;;;;;;4395460;32;20658;-62
2022/01/26 09:41:59;;;;;;;388.83;366.73;;;4.80;99.90;;;;;;4395468;32;20251;-61
2022/01/26 09:44:29;;;;;;;411.53;387.47;;;4.80;99.90;;;;;;4391356;32;20202;-59
2022/01/26 09:46:56;;;;;;;374.60;352.97;;;4.90;99.90;;;;;;4391283;32;20163;-61
2022/01/26 09:49:31;;;;;;;382.43;359.80;;;4.80;99.90;;;;;;4392704;32;20156;-59
2022/01/26 09:52:01;;;;;;;384.27;362.60;;;4.80;99.90;;;;;;4392299;32;20215;-61
2022/01/26 09:54:30;;;;;;;387.40;365.43;;;4.80;99.90;;;;;;4392717;32;20171;-60
2022/01/26 09:57:01;;;;;;;383.53;361.07;;;4.90;99.90;;;;;;4391075;32;20145;-60
2022/01/26 09:59:31;;;;;;;390.73;367.37;;;4.90;99.90;;;;;;4392780;32;20152;-61
2022/01/26 10:01:58;;;;;;;395.97;372.63;;;4.90;99.90;;;;;;4392718;32;20183;-61
2022/01/26 10:04:28;;;;;;;408.27;383.77;;;4.80;99.90;;;;;;4390963;32;20148;-60
2022/01/26 10:07:05;;;;;;;382.93;361.17;;;4.80;99.90;;;;;;4390718;32;20479;-61
2022/01/26 10:15:29;;;;;;;409.63;386.93;;;4.90;99.90;;;;;;4373925;32;20210;-62
2022/01/26 10:18:09;;;;;;;380.87;359.50;;;4.90;99.90;;;;;;4373877;32;20327;-61
2022/01/26 10:20:41;;;;;;;406.93;383.20;;;5.00;99.90;;;;;;4374203;32;20194;-62
2022/01/26 10:23:12;;;;;;;401.00;377.87;;;5.00;99.90;;;;;;4385333;32;20256;-63
2022/01/26 10:25:41;;;;;;;380.17;358.53;;;5.10;99.90;;;;;;4389285;32;20311;-61
2022/01/26 10:28:11;;;;;;;396.23;373.40;;;5.10;99.90;;;;;;4389693;32;20655;-62
2022/01/26 10:30:45;;;;;;;387.97;365.77;;;5.20;99.90;;;;;;4388603;32;20610;-62
2022/01/26 10:33:13;;;;;;;397.47;375.53;;;5.30;99.90;;;;;;4374549;32;20186;-61
2022/01/26 10:35:40;;;;;;;393.30;371.07;;;5.40;99.90;;;;;;4373451;32;20172;-61
2022/01/26 10:38:08;;;;;;;397.93;376.03;;;5.30;99.90;;;;;;4373611;32;20152;-61
2022/01/26 10:40:37;;;;;;;406.47;383.80;;;5.40;99.90;;;;;;4374159;32;20157;-61
2022/01/26 10:43:08;;;;;;;407.70;384.53;;;5.40;99.90;;;;;;4375067;32;20160;-63
2022/01/26 10:45:44;;;;;;;397.23;373.97;;;5.60;99.90;;;;;;4373448;32;20202;-61
2022/01/26 10:54:09;;;;;;;390.67;368.97;;;5.70;99.90;;;;;;4403011;32;20152;-61
2022/01/26 10:56:38;;;;;;;394.23;371.60;;;5.80;99.90;;;;;;4405521;32;20517;-61
2022/01/26 10:59:05;;;;;;;386.73;365.63;;;5.90;99.90;;;;;;4405574;32;20152;-63
2022/01/26 11:01:35;;;;;;;415.97;392.70;;;5.90;99.90;;;;;;4395469;32;20596;-62
2022/01/26 11:04:03;;;;;;;431.33;407.10;;;6.00;99.90;;;;;;4391063;32;20183;-62
2022/01/26 11:06:31;;;;;;;386.47;364.43;;;6.00;99.90;;;;;;4390432;32;20164;-63
2022/01/26 11:09:02;;;;;;;390.23;369.17;;;6.00;99.90;;;;;;4390753;32;20559;-63
2022/01/26 11:11:28;;;;;;;399.67;377.67;;;6.10;99.90;;;;;;4392171;32;20179;-62
2022/01/26 11:13:55;;;;;;;414.00;391.80;;;6.10;99.90;;;;;;4390473;32;20167;-61
2022/01/26 11:16:22;;;;;;;436.13;411.53;;;6.20;99.90;;;;;;4398482;32;20171;-64
2022/01/26 11:18:51;;;;;;;417.00;393.77;;;6.30;99.90;;;;;;4421216;32;20195;-61
2022/01/26 11:21:35;;;;;;;441.67;417.23;;;6.30;99.90;;;;;;4411205;32;20171;-61
2022/01/26 11:24:09;;;;;;;415.03;391.70;;;6.20;99.90;;;;;;4407482;32;20148;-61
2022/01/26 11:26:38;;;;;;;443.73;419.50;;;6.30;99.90;;;;;;4409150;32;20560;-61
2022/01/26 11:29:17;;;;;;;425.23;402.33;;;6.40;99.90;;;;;;4408597;32;20211;-61
2022/01/26 11:31:45;;;;;;;427.93;404.50;;;6.50;99.90;;;;;;4404949;32;20215;-63
2022/01/26 11:34:13;;;;;;;434.70;411.57;;;6.40;99.90;;;;;;4408652;32;20160;-62
2022/01/26 11:36:44;;;;;;;416.83;394.00;;;6.40;99.90;;;;;;4408385;32;20148;-62
2022/01/26 11:47:30;;;;;;;436.90;413.47;;;6.50;99.90;;;;;;4409558;32;20193;-63
2022/01/26 11:50:05;;;;;;;450.27;426.27;;;6.60;99.90;;;;;;4408973;32;20156;-62
2022/01/26 11:52:38;;;;;;;447.47;422.60;;;6.70;99.90;;;;;;4400302;32;20156;-62
2022/01/26 11:55:10;;;;;;;435.63;411.57;;;6.80;99.90;;;;;;4392937;32;20186;-61
2022/01/26 11:57:44;;;;;;;441.53;417.67;;;6.80;99.90;;;;;;4394601;32;20147;-61
2022/01/26 12:00:17;;;;;;;466.37;441.17;;;6.90;99.90;;;;;;4393847;32;20165;-61
2022/01/26 12:02:53;;;;;;;445.27;420.90;;;6.90;99.90;;;;;;4394104;32;20572;-61
2022/01/26 12:05:23;;;;;;;444.80;420.73;;;6.90;99.90;;;;;;4394030;32;20239;-61
2022/01/26 12:07:55;;;;;;;456.63;431.50;;;6.90;99.90;;;;;;4392848;32;20179;-61
2022/01/26 12:10:28;;;;;;;466.87;441.23;;;7.00;99.90;;;;;;4393716;32;20228;-61
2022/01/26 12:13:07;;;;;;;469.80;444.70;;;7.10;99.90;;;;;;4397004;32;20168;-63
2022/01/26 12:15:42;;;;;;;449.27;425.30;;;7.30;99.90;;;;;;4404891;32;20159;-61
2022/01/26 12:18:22;;;;;;;446.53;422.07;;;7.30;99.90;;;;;;4411476;32;20147;-61
2022/01/26 12:32:55;;;;;;;464.43;440.00;;;7.10;99.90;;;;;;4405459;32;20213;-61
2022/01/26 12:35:33;;;;;;;468.67;443.73;;;7.00;99.90;;;;;;4405156;32;20580;-61
2022/01/26 12:38:06;;;;;;;462.67;438.20;;;6.90;99.90;;;;;;4404816;32;20183;-61
2022/01/26 12:43:33;;;;;;;474.63;449.30;;;7.00;99.90;;;;;;4401396;32;20166;-60
2022/01/26 12:46:00;;;;;;;476.70;451.23;;;7.00;99.90;;;;;;4405451;32;20594;-60
2022/01/26 12:48:28;;;;;;;484.67;458.60;;;7.00;99.90;;;;;;4404395;32;20171;-60
2022/01/26 12:50:56;;;;;;;489.63;463.53;;;7.10;99.90;;;;;;4399032;32;20595;-60
2022/01/26 12:53:25;;;;;;;499.20;472.13;;;7.10;99.90;;;;;;4393385;32;20152;-60
2022/01/26 12:55:57;;;;;;;490.70;464.17;;;7.10;99.90;;;;;;4392575;32;20522;-60
2022/01/26 12:58:26;;;;;;;487.40;461.13;;;7.10;99.90;;;;;;4392510;32;20174;-60
2022/01/26 13:00:54;;;;;;;515.07;487.20;;;7.10;99.90;;;;;;4405579;32;20514;-60
2022/01/26 13:03:23;;;;;;;505.80;478.77;;;7.20;99.90;;;;;;4404824;32;20264;-61
2022/01/26 13:05:50;;;;;;;517.57;489.00;;;7.10;99.90;;;;;;4393221;32;20552;-60
2022/01/26 13:08:16;;;;;;;493.17;466.77;;;7.10;99.90;;;;;;4406969;32;20166;-60
2022/01/26 13:10:43;;;;;;;499.23;471.77;;;7.10;99.90;;;;;;4407028;32;20203;-60
2022/01/26 13:13:15;;;;;;;508.93;481.73;;;7.20;99.90;;;;;;4405549;32;20599;-61
2022/01/26 13:15:49;;;;;;;507.63;480.23;;;7.30;99.90;;;;;;4392887;32;20152;-60
2022/01/26 13:18:22;;;;;;;512.57;485.20;;;7.40;99.90;;;;;;4399966;32;20175;-60
2022/01/26 13:21:20;;;;;;;510.23;482.83;;;7.50;99.90;;;;;;4405901;32;20157;-61
2022/01/26 13:24:03;;;;;;;472.87;447.87;;;7.60;99.90;;;;;;4405093;32;20151;-60
2022/01/26 13:26:38;;;;;;;474.57;449.80;;;7.60;99.90;;;;;;4406193;32;20200;-62
2022/01/26 13:29:22;;;;;;;496.53;470.33;;;7.40;99.90;;;;;;4406581;32;20207;-62
2022/01/26 13:32:28;;;;;;;486.47;460.47;;;7.30;99.90;;;;;;4408230;32;20217;-62
2022/01/26 13:38:04;;;;;;;481.43;455.37;;;7.10;99.90;;;;;;4393332;32;20232;-62
2022/01/26 13:40:46;;;;;;;484.27;458.70;;;7.00;99.90;;;;;;4407078;32;20183;-62
2022/01/26 13:52:02;;;;;;;487.37;460.90;;;6.70;99.90;;;;;;4373762;32;20222;-61
2022/01/26 13:54:51;;;;;;;496.17;469.27;;;6.70;99.90;;;;;;4373103;32;20511;-61
2022/01/26 13:57:42;;;;;;;482.43;456.93;;;6.80;99.90;;;;;;4364418;32;20167;-62
2022/01/26 14:00:13;;;;;;;467.77;442.20;;;6.80;99.90;;;;;;4373982;32;20188;-62
2022/01/26 14:02:41;;;;;;;480.33;454.13;;;6.70;99.90;;;;;;4372924;32;20156;-62
2022/01/26 14:05:09;;;;;;;495.13;468.30;;;6.80;99.90;;;;;;4371122;32;20179;-61
2022/01/26 14:07:36;;;;;;;505.87;479.00;;;6.80;99.90;;;;;;4373962;32;20226;-62
2022/01/26 14:10:04;;;;;;;486.93;460.47;;;6.90;99.90;;;;;;4373063;32;20174;-62
2022/01/26 14:12:35;;;;;;;523.93;495.33;;;6.90;99.90;;;;;;4372596;32;20164;-60
2022/01/26 14:15:07;;;;;;;510.93;483.50;;;6.90;99.90;;;;;;4369596;32;20173;-60
2022/01/26 14:17:41;;;;;;;499.23;473.10;;;7.00;99.90;;;;;;4372747;32;20499;-60
2022/01/26 14:20:18;;;;;;;496.90;470.63;;;7.00;99.90;;;;;;4371946;32;20161;-62
2022/01/26 14:23:13;;;;;;;499.47;472.77;;;7.00;99.90;;;;;;4369098;32;20160;-62
2022/01/26 14:25:42;;;;;;;467.23;442.73;;;7.00;99.90;;;;;;4377571;32;20179;-62
2022/01/26 14:28:11;;;;;;;514.77;487.73;;;7.00;99.90;;;;;;4402524;32;20147;-62